KMVE

Montevideo-Chippewa County Airport

Montevideo, Minnesota, USA
METAR KMVE 191535Z AUTO 35011KT 10SM OVC014 M08/M10 A3018 RMK AO2
Observed Flight Rules
Nov-19 @ 15:35 UTC (7 minutes ago) Marginal Visual Flight Rules
Wind Visibility Clouds
350° at 11 knots 10 miles
  • Overcast at 1,400' AGL
Temperatures Readings
Current -8°C / 18°F
Dewpoint -10°C / 14°F
Humidity 86%
Altimeter 30.18" Hg
Pressure 1022 hPa
Elevation 315
METAR KMVE 191535Z AUTO 35011KT 10SM OVC014 M08/M10 A3018 RMK AO2
Observed Flight Rules
Nov-19 @ 15:35 UTC
(7 minutes ago)
MVFR
Wind Visibility
350° at 11 knots 10 miles
Clouds
  • Overcast at 1,400' AGL
Temperature Dewpoint
-8°C / 18°F -10°C / 14°F
Humidity Altimeter Pressure
86% 30.18" Hg 1022 hPa